createdAt,value
2019-05-22T00:02:39.600Z,93.73
2019-05-22T00:05:15.818Z,93.54
2019-05-22T00:07:48.040Z,93.39
2019-05-22T00:10:22.340Z,93.50
2019-05-22T00:12:54.458Z,93.61
2019-05-22T00:15:24.843Z,93.40
2019-05-22T00:17:54.501Z,93.60
2019-05-22T00:20:26.143Z,93.72
2019-05-22T00:22:56.914Z,93.78
2019-05-22T00:25:28.527Z,93.72
2019-05-22T00:27:59.722Z,93.91
2019-05-22T00:30:32.250Z,93.83
2019-05-22T00:33:02.284Z,93.86
2019-05-22T00:35:32.283Z,93.77
2019-05-22T00:38:05.850Z,93.77
2019-05-22T00:40:37.937Z,94.15
2019-05-22T00:43:13.871Z,94.32
2019-05-22T00:45:39.555Z,94.46
2019-05-22T00:48:09.214Z,94.58
2019-05-22T00:50:40.545Z,94.80
2019-05-22T00:53:11.805Z,95.03
2019-05-22T00:55:43.666Z,95.30
2019-05-22T00:58:17.722Z,95.39
2019-05-22T01:00:49.019Z,95.72
2019-05-22T01:03:20.550Z,95.86
2019-05-22T01:05:51.739Z,96.18
2019-05-22T01:08:22.207Z,96.43
2019-05-22T01:10:54.703Z,96.41
2019-05-22T01:13:26.234Z,96.87
2019-05-22T01:15:56.456Z,97.25
2019-05-22T01:18:28.300Z,97.55
2019-05-22T01:20:59.671Z,97.58
2019-05-22T01:23:30.864Z,97.65
2019-05-22T01:26:01.533Z,97.65
2019-05-22T01:28:33.341Z,97.59
2019-05-22T01:31:10.568Z,97.54
2019-05-22T01:33:44.803Z,97.80
2019-05-22T01:36:16.165Z,97.80
2019-05-22T01:38:45.789Z,97.86
2019-05-22T01:41:19.866Z,97.92
2019-05-22T01:43:51.405Z,97.98
2019-05-22T01:46:22.033Z,98.08
2019-05-22T01:48:55.799Z,98.09
2019-05-22T01:51:25.626Z,98.28
2019-05-22T01:53:55.814Z,98.31
2019-05-22T01:56:27.252Z,98.27
2019-05-22T01:58:58.123Z,98.31
2019-05-22T02:01:27.816Z,98.22
2019-05-22T02:03:59.169Z,97.94
2019-05-22T02:06:30.053Z,97.83
2019-05-22T02:09:13.219Z,97.72
2019-05-22T02:11:45.743Z,97.84
2019-05-22T02:14:17.619Z,97.49
2019-05-22T02:16:56.671Z,97.36
2019-05-22T02:19:21.005Z,97.39
2019-05-22T02:21:51.874Z,97.37
2019-05-22T02:24:22.836Z,97.60
2019-05-22T02:26:52.921Z,97.64
2019-05-22T02:29:24.020Z,97.77
2019-05-22T02:31:56.043Z,97.74
2019-05-22T02:34:26.133Z,97.84
2019-05-22T02:36:57.729Z,97.90
2019-05-22T02:39:32.770Z,98.10
2019-05-22T02:42:08.420Z,97.90
2019-05-22T02:44:38.460Z,97.89
2019-05-22T02:47:19.737Z,97.52
2019-05-22T02:49:43.182Z,97.62
2019-05-22T02:52:12.810Z,97.36
2019-05-22T02:54:42.954Z,97.34
2019-05-22T02:57:12.900Z,97.51
2019-05-22T02:59:43.247Z,97.63
2019-05-22T03:02:15.326Z,97.72
2019-05-22T03:04:48.100Z,97.94
2019-05-22T03:07:18.460Z,98.31
2019-05-22T03:09:48.379Z,98.55
2019-05-22T03:12:19.931Z,98.27
2019-05-22T03:14:49.640Z,98.03
2019-05-22T03:17:30.879Z,97.52
2019-05-22T03:20:04.284Z,97.41
2019-05-22T03:22:40.858Z,97.39
2019-05-22T03:25:15.341Z,97.07
2019-05-22T03:27:50.692Z,96.94
2019-05-22T03:30:24.471Z,96.97
2019-05-22T03:32:55.638Z,96.81
2019-05-22T03:35:28.119Z,96.94
2019-05-22T03:37:59.167Z,97.32
2019-05-22T03:40:30.962Z,97.03
2019-05-22T03:43:04.023Z,97.12
2019-05-22T03:45:36.159Z,97.10
2019-05-22T03:48:06.261Z,97.41
2019-05-22T03:50:37.541Z,97.44
2019-05-22T03:53:16.450Z,97.59
2019-05-22T03:55:48.641Z,97.42
2019-05-22T03:58:18.742Z,97.09
2019-05-22T04:00:53.223Z,97.17
2019-05-22T04:03:24.208Z,97.18
2019-05-22T04:05:54.403Z,97.32
2019-05-22T04:08:26.534Z,97.30
2019-05-22T04:10:59.936Z,96.97
2019-05-22T04:13:30.831Z,97.22
2019-05-22T04:16:02.205Z,97.15
2019-05-22T04:18:32.748Z,96.84
2019-05-22T04:21:03.271Z,97.12
2019-05-22T04:23:33.282Z,97.08
2019-05-22T04:26:05.145Z,96.81
2019-05-22T04:28:38.558Z,97.01
2019-05-22T04:31:08.685Z,96.65
2019-05-22T04:33:38.433Z,96.75
2019-05-22T04:36:10.363Z,96.47
2019-05-22T04:38:39.881Z,96.61
2019-05-22T04:41:10.183Z,96.73
2019-05-22T04:43:39.947Z,96.36
2019-05-22T04:46:09.912Z,96.06
2019-05-22T04:48:39.746Z,96.12
2019-05-22T04:51:30.175Z,96.22
2019-05-22T04:53:59.869Z,95.53
2019-05-22T04:56:30.063Z,95.65
2019-05-22T04:59:01.536Z,96.29
2019-05-22T05:01:31.229Z,96.03
2019-05-22T05:04:01.626Z,96.27
2019-05-22T05:06:34.167Z,95.85
2019-05-22T05:09:06.805Z,95.88
2019-05-22T05:11:38.832Z,96.07
2019-05-22T05:14:08.499Z,96.15
2019-05-22T05:16:38.393Z,96.38
2019-05-22T05:19:08.166Z,96.56
2019-05-22T05:21:38.742Z,96.39
2019-05-22T05:24:08.630Z,96.47
2019-05-22T05:26:39.262Z,96.57
2019-05-22T05:29:12.423Z,96.45
2019-05-22T05:31:42.386Z,96.43
2019-05-22T05:34:27.139Z,96.46
2019-05-22T05:36:57.612Z,96.43
2019-05-22T05:39:33.630Z,95.98
2019-05-22T05:42:03.657Z,95.98
2019-05-22T05:44:33.952Z,96.22
2019-05-22T05:47:05.947Z,96.54
2019-05-22T05:49:36.167Z,96.63
2019-05-22T05:52:07.222Z,96.03
2019-05-22T05:54:37.809Z,96.09
2019-05-22T05:57:36.645Z,96.13
2019-05-22T06:00:10.247Z,96.20
2019-05-22T06:02:54.038Z,96.10
2019-05-22T06:05:12.191Z,95.98
2019-05-22T06:07:42.158Z,95.84
2019-05-22T06:10:30.129Z,96.04
2019-05-22T06:13:01.652Z,96.13
2019-05-22T06:15:47.091Z,96.58
2019-05-22T06:18:26.890Z,96.61
2019-05-22T06:21:04.033Z,96.54
2019-05-22T06:23:32.660Z,96.67
2019-05-22T06:26:03.071Z,96.41
2019-05-22T06:28:35.834Z,96.73
2019-05-22T06:31:07.269Z,96.65
2019-05-22T06:33:38.733Z,96.51
2019-05-22T06:36:12.484Z,96.92
2019-05-22T06:38:59.738Z,96.14
2019-05-22T06:41:33.005Z,96.28
2019-05-22T06:44:22.587Z,95.47
2019-05-22T06:46:52.477Z,96.25
2019-05-22T06:49:34.531Z,96.14
2019-05-22T06:52:06.133Z,95.73
2019-05-22T06:54:36.821Z,95.70
2019-05-22T06:57:10.253Z,95.70
2019-05-22T06:59:41.027Z,95.60
2019-05-22T07:02:13.066Z,95.61
2019-05-22T07:04:43.467Z,95.35
2019-05-22T07:07:14.188Z,95.34
2019-05-22T07:09:44.911Z,95.60
2019-05-22T07:12:16.239Z,95.28
2019-05-22T07:14:54.757Z,95.01
2019-05-22T07:17:25.702Z,95.50
2019-05-22T07:19:55.738Z,94.89
2019-05-22T07:22:25.908Z,95.19
2019-05-22T07:24:55.743Z,95.60
2019-05-22T07:27:26.905Z,95.30
2019-05-22T07:29:57.110Z,95.53
2019-05-22T07:32:30.752Z,95.21
2019-05-22T07:34:58.846Z,95.43
2019-05-22T07:37:30.361Z,95.90
2019-05-22T07:40:00.058Z,95.85
2019-05-22T07:42:30.556Z,96.20
2019-05-22T07:45:00.405Z,96.34
2019-05-22T07:47:30.358Z,96.35
2019-05-22T07:50:00.386Z,96.43
2019-05-22T07:52:31.155Z,96.47
2019-05-22T07:55:02.591Z,96.17
2019-05-22T07:57:32.954Z,96.26
2019-05-22T08:00:03.707Z,96.30
2019-05-22T08:02:36.916Z,96.08
2019-05-22T08:05:07.288Z,96.47
2019-05-22T08:07:40.157Z,96.85
2019-05-22T08:10:14.052Z,95.45
2019-05-22T08:12:45.357Z,95.07
2019-05-22T08:15:16.710Z,94.79
2019-05-22T08:17:46.702Z,94.71
2019-05-22T08:20:16.555Z,95.37
2019-05-22T08:22:47.623Z,95.08
2019-05-22T08:25:17.588Z,95.26
2019-05-22T08:27:49.670Z,95.04
2019-05-22T08:30:22.002Z,94.91
2019-05-22T08:32:53.277Z,94.88
2019-05-22T08:35:23.842Z,94.51
2019-05-22T08:37:54.715Z,94.94
2019-05-22T08:40:25.021Z,94.30
2019-05-22T08:42:55.519Z,94.13
2019-05-22T08:45:25.447Z,94.71
2019-05-22T08:47:55.090Z,94.19
2019-05-22T08:50:28.994Z,93.51
2019-05-22T08:52:58.741Z,92.92
2019-05-22T08:55:29.558Z,93.48
2019-05-22T08:57:59.465Z,93.28
2019-05-22T09:00:30.804Z,93.63
2019-05-22T09:03:01.532Z,93.84
2019-05-22T09:05:31.761Z,91.95
2019-05-22T09:08:01.706Z,92.30
2019-05-22T09:10:32.933Z,93.11
2019-05-22T09:13:03.734Z,92.24
2019-05-22T09:15:34.986Z,92.06
2019-05-22T09:18:05.117Z,92.70
2019-05-22T09:20:48.756Z,92.66
2019-05-22T09:23:07.725Z,92.78
2019-05-22T09:25:37.761Z,92.84
2019-05-22T09:28:07.962Z,93.00
2019-05-22T09:30:37.902Z,92.98
2019-05-22T09:33:09.172Z,92.93
2019-05-22T09:35:39.119Z,93.08
2019-05-22T09:38:08.782Z,93.36
2019-05-22T09:40:38.657Z,93.43
2019-05-22T09:43:08.336Z,93.01
2019-05-22T09:45:37.968Z,93.01
2019-05-22T09:48:07.906Z,93.21
2019-05-22T09:50:37.714Z,92.87
2019-05-22T09:53:08.018Z,92.17
2019-05-22T09:55:38.418Z,92.39
2019-05-22T09:58:08.415Z,91.66
2019-05-22T10:00:38.433Z,91.31
2019-05-22T10:03:09.317Z,91.84
2019-05-22T10:05:39.164Z,90.40
2019-05-22T10:08:09.231Z,89.17
2019-05-22T10:10:39.031Z,89.14
2019-05-22T10:13:08.779Z,88.01
2019-05-22T10:15:39.762Z,88.45
2019-05-22T10:18:10.776Z,87.26
2019-05-22T10:20:42.007Z,87.52
2019-05-22T10:23:15.914Z,87.17
2019-05-22T10:25:43.507Z,87.13
2019-05-22T10:28:13.383Z,87.22
2019-05-22T10:30:43.147Z,85.42
2019-05-22T10:33:12.903Z,84.84
2019-05-22T10:35:43.219Z,84.26
2019-05-22T10:38:12.967Z,83.92
2019-05-22T10:40:42.780Z,84.51
2019-05-22T10:43:12.603Z,83.78
2019-05-22T10:45:42.376Z,84.57
2019-05-22T10:48:12.288Z,84.70
2019-05-22T10:50:42.039Z,85.59
2019-05-22T10:53:12.107Z,84.58
2019-05-22T10:55:41.879Z,83.58
2019-05-22T10:58:11.888Z,83.59
2019-05-22T11:00:41.830Z,80.28
2019-05-22T11:03:11.997Z,77.39
2019-05-22T11:05:42.567Z,77.92
2019-05-22T11:08:12.242Z,79.12
2019-05-22T11:10:45.193Z,79.82
2019-05-22T11:13:14.596Z,80.89
2019-05-22T11:15:44.890Z,79.28
2019-05-22T11:18:15.036Z,77.34
2019-05-22T11:20:45.141Z,77.18
2019-05-22T11:23:14.933Z,77.24
2019-05-22T11:25:45.131Z,76.51
2019-05-22T11:28:14.896Z,76.86
2019-05-22T11:30:44.862Z,75.95
2019-05-22T11:33:14.763Z,73.99
2019-05-22T11:35:45.511Z,75.15
2019-05-22T11:38:15.612Z,77.03
2019-05-22T11:40:45.435Z,75.44
2019-05-22T11:43:15.426Z,75.88
2019-05-22T11:45:45.692Z,73.20
2019-05-22T11:48:15.820Z,74.68
2019-05-22T11:50:46.414Z,75.88
2019-05-22T11:53:16.124Z,75.05
2019-05-22T11:55:46.598Z,75.53
2019-05-22T11:58:16.433Z,75.79
2019-05-22T12:00:46.067Z,75.67
2019-05-22T12:03:15.745Z,74.93
2019-05-22T12:05:45.640Z,75.71
2019-05-22T12:08:15.302Z,75.98
2019-05-22T12:10:45.131Z,73.42
2019-05-22T12:13:15.126Z,72.86
2019-05-22T12:15:45.193Z,73.23
2019-05-22T12:18:15.150Z,72.01
2019-05-22T12:20:44.851Z,73.42
2019-05-22T12:23:14.500Z,76.68
2019-05-22T12:25:44.129Z,74.98
2019-05-22T12:28:13.798Z,75.45
2019-05-22T12:30:43.841Z,75.46
2019-05-22T12:33:14.488Z,74.23
2019-05-22T12:35:44.936Z,73.31
2019-05-22T12:38:14.918Z,74.64
2019-05-22T12:40:45.113Z,74.26
2019-05-22T12:43:16.041Z,72.37
2019-05-22T12:45:46.079Z,72.32
2019-05-22T12:48:15.836Z,73.80
2019-05-22T12:50:45.641Z,72.59
2019-05-22T12:53:16.167Z,72.54
2019-05-22T12:55:45.972Z,74.20
2019-05-22T12:58:15.647Z,74.79
2019-05-22T13:00:45.551Z,75.82
2019-05-22T13:03:15.570Z,76.18
2019-05-22T13:05:46.066Z,76.54
2019-05-22T13:08:16.369Z,76.97
2019-05-22T13:10:46.549Z,77.40
2019-05-22T13:13:16.275Z,77.38
2019-05-22T13:15:45.978Z,76.71
2019-05-22T13:18:18.772Z,77.45
2019-05-22T13:20:50.870Z,76.79
2019-05-22T13:23:23.275Z,76.41
2019-05-22T13:25:54.840Z,76.78
2019-05-22T13:28:27.310Z,77.26
2019-05-22T13:30:58.283Z,77.98
2019-05-22T13:33:31.564Z,76.78
2019-05-22T13:36:01.485Z,76.80
2019-05-22T13:38:31.251Z,77.26
2019-05-22T13:41:01.279Z,77.36
2019-05-22T13:43:31.967Z,77.04
2019-05-22T13:46:01.681Z,75.24
2019-05-22T13:48:31.459Z,75.69
2019-05-22T13:51:01.482Z,75.15
2019-05-22T13:53:32.360Z,74.38
2019-05-22T13:56:02.476Z,75.17
2019-05-22T13:58:33.377Z,74.63
2019-05-22T14:01:03.317Z,75.22
2019-05-22T14:03:33.428Z,75.67
2019-05-22T14:06:04.161Z,75.99
2019-05-22T14:08:33.920Z,76.73
2019-05-22T14:11:04.594Z,77.30
2019-05-22T14:13:35.433Z,77.85
2019-05-22T14:16:05.564Z,77.43
2019-05-22T14:18:35.245Z,78.28
2019-05-22T14:21:05.426Z,77.62
2019-05-22T14:23:35.405Z,76.97
2019-05-22T14:26:05.521Z,76.33
2019-05-22T14:28:36.226Z,77.22
2019-05-22T14:31:06.208Z,77.83
2019-05-22T14:33:40.242Z,79.64
2019-05-22T14:36:07.899Z,79.39
2019-05-22T14:38:37.639Z,79.82
2019-05-22T14:41:07.818Z,80.58
2019-05-22T14:43:37.719Z,80.54
2019-05-22T14:46:07.615Z,81.42
2019-05-22T14:48:39.478Z,81.45
2019-05-22T14:51:09.353Z,81.51
2019-05-22T14:53:40.096Z,82.21
2019-05-22T14:56:11.254Z,82.83
2019-05-22T14:58:43.765Z,82.29
2019-05-22T15:01:13.573Z,82.15
2019-05-22T15:03:43.675Z,82.37
2019-05-22T15:06:14.180Z,82.05
2019-05-22T15:08:43.894Z,82.31
2019-05-22T15:11:15.643Z,82.38
2019-05-22T15:13:45.670Z,82.48
2019-05-22T15:16:15.375Z,83.17
2019-05-22T15:18:45.107Z,84.19
2019-05-22T15:21:16.048Z,84.21
2019-05-22T15:23:47.814Z,84.12
2019-05-22T15:26:17.501Z,84.41
2019-05-22T15:28:47.153Z,84.53
2019-05-22T15:31:17.023Z,84.65
2019-05-22T15:33:47.162Z,85.06
2019-05-22T15:36:18.976Z,84.44
2019-05-22T15:38:49.838Z,85.05
2019-05-22T15:41:19.473Z,85.85
2019-05-22T15:43:53.204Z,85.67
2019-05-22T15:46:24.543Z,86.51
2019-05-22T15:48:55.894Z,87.34
2019-05-22T15:51:29.867Z,89.58
2019-05-22T15:54:02.675Z,90.83
2019-05-22T15:56:34.372Z,91.48
2019-05-22T15:59:07.008Z,92.87
2019-05-22T16:01:37.360Z,93.62
2019-05-22T16:04:10.161Z,93.93
2019-05-22T16:06:40.384Z,94.34
2019-05-22T16:09:14.243Z,95.48
2019-05-22T16:11:46.464Z,95.79
2019-05-22T16:14:16.306Z,96.71
2019-05-22T16:16:48.917Z,95.99
2019-05-22T16:19:21.019Z,96.12
2019-05-22T16:21:52.125Z,96.92
2019-05-22T16:24:21.848Z,96.98
2019-05-22T16:26:53.000Z,96.67
2019-05-22T16:29:24.610Z,97.14
2019-05-22T16:31:56.020Z,97.68
2019-05-22T16:34:28.506Z,98.00
2019-05-22T16:36:58.409Z,97.50
2019-05-22T16:39:28.223Z,97.94
2019-05-22T16:41:58.223Z,97.72
2019-05-22T16:44:28.228Z,97.74
2019-05-22T16:46:58.996Z,97.63
2019-05-22T16:49:30.210Z,98.18
2019-05-22T16:52:11.883Z,98.18
2019-05-22T16:54:42.917Z,98.51
2019-05-22T16:57:13.010Z,98.72
2019-05-22T16:59:42.820Z,98.70
2019-05-22T17:02:14.179Z,98.73
2019-05-22T17:04:44.052Z,98.98
2019-05-22T17:07:14.052Z,98.92
2019-05-22T17:09:44.420Z,98.76
2019-05-22T17:12:16.904Z,98.76
2019-05-22T17:14:48.713Z,98.80
2019-05-22T17:17:19.401Z,99.47
2019-05-22T17:19:49.567Z,99.68
2019-05-22T17:22:20.157Z,99.33
2019-05-22T17:24:49.781Z,98.97
2019-05-22T17:27:20.422Z,99.10
2019-05-22T17:29:51.576Z,98.79
2019-05-22T17:32:23.045Z,99.12
2019-05-22T17:34:52.684Z,99.35
2019-05-22T17:37:22.409Z,99.42
2019-05-22T17:39:52.445Z,99.14
2019-05-22T17:42:24.995Z,99.44
2019-05-22T17:44:55.513Z,99.48
2019-05-22T17:47:26.357Z,99.69
2019-05-22T17:50:04.209Z,99.12
2019-05-22T17:52:34.180Z,99.23
2019-05-22T17:55:09.435Z,99.14
2019-05-22T17:57:40.431Z,98.95
2019-05-22T18:00:29.384Z,99.26
2019-05-22T18:03:00.236Z,99.24
2019-05-22T18:05:30.945Z,98.96
2019-05-22T18:08:01.406Z,98.92
2019-05-22T18:10:33.906Z,98.88
2019-05-22T18:13:06.051Z,98.88
2019-05-22T18:15:36.122Z,98.94
2019-05-22T18:18:07.062Z,98.99
2019-05-22T18:20:43.345Z,98.48
2019-05-22T18:23:09.319Z,98.35
2019-05-22T18:25:39.145Z,98.16
2019-05-22T18:28:10.433Z,97.92
2019-05-22T18:30:41.963Z,97.82
2019-05-22T18:33:13.138Z,97.55
2019-05-22T18:35:43.320Z,97.95
2019-05-22T18:38:13.012Z,97.34
2019-05-22T18:40:42.661Z,97.94
2019-05-22T18:43:13.690Z,98.19
2019-05-22T18:45:43.412Z,97.96
2019-05-22T18:48:13.333Z,97.28
2019-05-22T18:50:42.987Z,97.53
2019-05-22T18:53:12.633Z,98.13
2019-05-22T18:55:42.291Z,97.69
2019-05-22T18:58:12.181Z,97.94
2019-05-22T19:00:42.211Z,97.65
2019-05-22T19:03:11.919Z,97.35
2019-05-22T19:05:42.550Z,97.32
2019-05-22T19:08:12.238Z,97.46
2019-05-22T19:10:42.146Z,97.10
2019-05-22T19:13:14.476Z,97.11
2019-05-22T19:15:43.629Z,97.40
2019-05-22T19:18:13.438Z,97.96
2019-05-22T19:20:43.838Z,97.44
2019-05-22T19:23:13.530Z,96.94
2019-05-22T19:25:43.198Z,97.20
2019-05-22T19:28:13.012Z,97.89
2019-05-22T19:30:42.805Z,97.02
2019-05-22T19:33:14.805Z,97.33
2019-05-22T19:35:43.960Z,97.53
2019-05-22T19:38:14.010Z,97.71
2019-05-22T19:40:43.725Z,98.08
2019-05-22T19:43:13.692Z,97.85
2019-05-22T19:45:43.893Z,97.71
2019-05-22T19:48:15.030Z,96.89
2019-05-22T19:50:46.014Z,97.88
2019-05-22T19:53:19.442Z,97.35
2019-05-22T19:55:49.014Z,97.35
2019-05-22T19:58:22.148Z,97.51
2019-05-22T20:00:50.627Z,97.33
2019-05-22T20:03:20.993Z,97.08
2019-05-22T20:05:51.027Z,97.60
2019-05-22T20:08:20.904Z,97.14
2019-05-22T20:10:51.503Z,97.46
2019-05-22T20:13:22.840Z,97.87
2019-05-22T20:15:52.512Z,97.75
2019-05-22T20:18:22.377Z,98.02
2019-05-22T20:20:52.612Z,98.08
2019-05-22T20:23:35.586Z,97.89
2019-05-22T20:25:54.372Z,97.36
2019-05-22T20:28:24.981Z,97.65
2019-05-22T20:30:55.110Z,97.63
2019-05-22T20:33:26.966Z,97.83
2019-05-22T20:35:56.305Z,97.58
2019-05-22T20:38:26.481Z,97.33
2019-05-22T20:40:56.131Z,98.05
2019-05-22T20:43:27.600Z,97.05
2019-05-22T20:45:58.201Z,97.28
2019-05-22T20:48:29.804Z,97.71
2019-05-22T20:51:01.065Z,97.47
2019-05-22T20:53:32.750Z,97.37
2019-05-22T20:56:04.304Z,97.10
2019-05-22T20:58:36.529Z,97.27
2019-05-22T21:01:07.624Z,97.42
2019-05-22T21:03:38.188Z,97.68
2019-05-22T21:06:12.282Z,97.09
2019-05-22T21:08:44.055Z,97.15
2019-05-22T21:11:16.308Z,96.95
2019-05-22T21:13:46.047Z,97.26
2019-05-22T21:16:17.280Z,96.94
2019-05-22T21:18:49.357Z,96.63
2019-05-22T21:21:20.297Z,95.56
2019-05-22T21:23:50.055Z,96.09
2019-05-22T21:26:20.631Z,95.75
2019-05-22T21:28:53.585Z,96.14
2019-05-22T21:31:22.409Z,96.33
2019-05-22T21:33:52.825Z,95.38
2019-05-22T21:36:23.803Z,95.75
2019-05-22T21:38:53.938Z,96.08
2019-05-22T21:41:23.628Z,95.37
2019-05-22T21:43:54.223Z,95.76
2019-05-22T21:46:24.297Z,95.61
2019-05-22T21:48:55.764Z,95.41
2019-05-22T21:51:25.559Z,95.28
2019-05-22T21:53:55.718Z,95.57
2019-05-22T21:56:25.346Z,95.60
2019-05-22T21:58:55.330Z,95.15
2019-05-22T22:01:29.501Z,94.75
2019-05-22T22:04:07.780Z,95.35
2019-05-22T22:06:37.581Z,94.63
2019-05-22T22:09:08.635Z,94.05
2019-05-22T22:11:38.601Z,94.34
2019-05-22T22:14:08.959Z,94.12
2019-05-22T22:16:39.734Z,93.74
2019-05-22T22:19:11.038Z,94.52
2019-05-22T22:21:40.742Z,94.23
2019-05-22T22:24:10.804Z,94.87
2019-05-22T22:26:40.691Z,94.94
2019-05-22T22:29:10.672Z,94.42
2019-05-22T22:31:41.696Z,95.73
2019-05-22T22:34:14.360Z,94.79
2019-05-22T22:36:44.552Z,94.83
2019-05-22T22:39:15.141Z,95.22
2019-05-22T22:41:46.177Z,95.10
2019-05-22T22:44:16.459Z,95.23
2019-05-22T22:46:50.891Z,95.76
2019-05-22T22:49:21.330Z,95.79
2019-05-22T22:51:53.184Z,95.45
2019-05-22T22:54:23.313Z,95.21
2019-05-22T22:56:53.490Z,96.12
2019-05-22T22:59:23.506Z,96.53
2019-05-22T23:01:56.542Z,95.99
2019-05-22T23:04:28.499Z,95.74
2019-05-22T23:07:03.136Z,95.86
2019-05-22T23:09:37.045Z,95.88
2019-05-22T23:12:09.806Z,95.61
2019-05-22T23:14:44.571Z,96.03
2019-05-22T23:17:15.725Z,96.01
2019-05-22T23:19:45.814Z,96.24
2019-05-22T23:22:15.787Z,95.32
2019-05-22T23:24:46.136Z,95.74
2019-05-22T23:27:17.743Z,95.66
2019-05-22T23:29:48.261Z,96.09
2019-05-22T23:32:18.638Z,96.12
2019-05-22T23:34:49.081Z,95.51
2019-05-22T23:37:22.433Z,95.21
2019-05-22T23:39:53.509Z,95.46
2019-05-22T23:42:27.102Z,95.25
2019-05-22T23:44:58.357Z,95.18
2019-05-22T23:47:28.155Z,95.51
2019-05-22T23:49:58.045Z,95.06
2019-05-22T23:52:27.941Z,95.55
2019-05-22T23:54:57.882Z,95.57
2019-05-22T23:57:28.198Z,95.33
2019-05-22T23:59:58.764Z,95.39
